Aviation Digital Data Service (ADDS)

Output produced by METARs form (2155 UTC 21 May 2022)
found at http://www.aviationweather.gov/metar/data/
 
TAF AMD KIAB 211915Z 2119/2224 02018G28KT 9999 SCT035 BKN085 QNH3011INS 
     BECMG 2123/2124 01012G18KT 9999 SCT050 QNH3013INS 
     BECMG 2205/2206 01009KT 9999 SCT080 QNH3026INS 
     BECMG 2214/2215 07012G18KT 9999 FEW100 QNH3023INS TX19/2218Z TN05/2211Z
LAST NO AMDS AFT 2119 NEXT 2310
       
KIAD 212107Z 2121/2224 17008KT P6SM SCT070 SCT250 
     FM220300 20004KT P6SM FEW060 SCT130 
     FM221600 23008G16KT P6SM SCT050 SCT130 
     FM221900 25008G16KT P6SM VCTS BKN050CB BKN130
       
KIAG 212004Z 2120/2218 22012G20KT P6SM FEW050 BKN250 
     FM212300 25010KT 6SM -SHRA BKN040 
     TEMPO 2123/2203 3SM TSRA OVC025CB 
     FM220300 19005KT P6SM BKN025 
     FM220900 21006KT P6SM BKN007 
     FM221300 21009KT P6SM VCSH OVC012
       
KIAH 212047Z 2121/2224 14014KT P6SM SCT035 BKN060 
     FM220300 14010KT P6SM SCT025 BKN150 
     FM220700 15010KT P6SM -RA VCTS BKN020CB 
     TEMPO 2208/2212 VRB25KT 3SM TSRA 
     FM221200 02012KT P6SM VCSH SCT008 BKN015 
     FM221700 02010KT P6SM VCSH SCT025 BKN120 
     FM222100 06009KT P6SM VCSH BKN035
       
KICT 211741Z 2118/2218 36015G25KT P6SM BKN090 
     FM212100 36014G22KT P6SM SCT120 
     FM220200 01007KT P6SM FEW250 
     FM221400 05009KT P6SM SCT250
       
KIDA 211720Z 2118/2218 VRB06KT P6SM FEW080 
     FM212000 21012KT P6SM VCSH SCT080 
     FM220200 17008KT P6SM FEW100 
     FM220700 03006KT P6SM SCT100 
     FM221400 24008KT P6SM BKN080
       
KIFP 211739Z 2118/2218 36020KT P6SM SKC 
     FM212100 VRB06KT P6SM FEW250 
     FM212200 22008KT P6SM FEW250 
     FM220400 15006KT P6SM SKC
       
KILG 211720Z 2118/2218 18010KT P6SM FEW250 
     FM212200 20007KT P6SM FEW250 
     FM220600 18004KT P6SM FEW250 
     FM221400 22009KT P6SM FEW200
       
KILM 211743Z 2118/2218 21010KT P6SM BKN200 
     FM220200 20008KT P6SM BKN100 OVC250 
     FM221600 23010KT P6SM OVC050 
     FM221700 23011G17KT P6SM SCT030 BKN100
       
KILN 211926Z 2119/2218 VRB25G45KT 2SM TSRA BKN040CB 
     FM212000 22012G20KT P6SM VCTS BKN040CB 
     TEMPO 2120/2123 VRB15G25KT 4SM TSRA 
     FM220300 21006KT P6SM VCSH BKN040 
     FM221000 24009KT P6SM VCSH BKN035 
     FM221300 30009KT P6SM OVC017 
     FM221700 33011KT P6SM BKN022
       
KIND 211939Z 2120/2224 28016G30KT P6SM BKN045 
     TEMPO 2120/2121 4SM TSRA BKN040CB 
     FM212200 23007KT P6SM VCSH BKN060 
     FM220200 23006KT 4SM -SHRA BR VCTS OVC013CB 
     FM220700 26006KT P6SM VCSH OVC017 
     FM221500 36009KT P6SM BKN250
       
KINT 212007Z 2120/2218 18012G18KT P6SM VCTS BKN040CB 
     TEMPO 2121/2124 2SM -TSRA BR BKN012CB OVC040 
     FM220000 16004KT P6SM VCSH OVC040 
     FM220700 16004KT 5SM BR OVC006 
     FM221300 23006KT P6SM SCT007 SCT250
       
KINW 211725Z 2118/2218 29009KT P6SM SCT070 
     FM212000 25015G25KT P6SM SCT250 
     FM220200 22010KT P6SM FEW250 
     FM221000 VRB05KT P6SM SCT250
       
KIPL 211741Z 2118/2218 10005KT P6SM SKC 
     FM212200 19005KT P6SM SKC 
     FM220100 25012G22KT P6SM SKC 
     FM220400 26007KT P6SM FEW250 
     FM221100 VRB05KT P6SM SKC
       
KIPT 212120Z 2121/2218 24009G16KT P6SM SCT070 
     FM212300 20005KT P6SM SCT250 
     FM221000 00000KT 5SM BR SCT003 
     FM221300 24007KT P6SM SCT050
       
KISM 212121Z 2121/2218 15010KT P6SM VCTS SCT040CB BKN080 
     TEMPO 2121/2123 2SM +TSRA BKN025CB 
     FM212300 10010KT P6SM VCTS SCT040CB OVC100 
     TEMPO 2123/2202 5SM TSRA BKN040CB 
     FM220400 15006KT P6SM SCT120 BKN200 
     FM221500 16006KT P6SM SCT035 SCT250
       
KISO 211720Z 2118/2218 22008G13KT P6SM SCT045 SCT220 
     FM212000 21009G15KT P6SM VCTS SCT045CB BKN200 
     FM220000 21007KT P6SM SCT100 BKN220 AMD LTD TO CLD VIS AND WIND
       
KISP 212004Z 2120/2218 20011KT P6SM SCT050 
     FM220600 21003KT 3SM BR SCT002 
     FM221200 21008KT P6SM FEW050 FEW150 
     FM221700 19011KT P6SM SCT050 SCT150
       
KITH 211740Z 2118/2218 23009KT P6SM FEW050 
     FM220300 16005KT P6SM BKN100 
     FM221400 24010KT P6SM SCT050
       
KIWA 211741Z 2118/2218 22010G20KT P6SM SKC 
     FM220400 25008KT P6SM SKC 
     FM220800 12006KT P6SM FEW250 
     FM221700 18006KT P6SM FEW250
       
KIXD 211726Z 2118/2218 35012G22KT P6SM BKN025 
     FM212000 35012G22KT P6SM SCT030 BKN080 
     FM220000 33005KT P6SM SCT120 
     FM221500 35010KT P6SM SKC